sensor_id;sensor_type;location;lat;lon;timestamp;temperature;humidity
48836;DHT22;62581;47.342;7.908;2022-09-09T00:00:37;16.90;99.90
48836;DHT22;62581;47.342;7.908;2022-09-09T00:03:10;16.80;99.90
48836;DHT22;62581;47.342;7.908;2022-09-09T00:05:42;16.70;99.90
48836;DHT22;62581;47.342;7.908;2022-09-09T00:08:15;16.60;99.90
48836;DHT22;62581;47.342;7.908;2022-09-09T00:10:47;16.60;99.90
48836;DHT22;62581;47.342;7.908;2022-09-09T00:13:22;16.60;99.90
48836;DHT22;62581;47.342;7.908;2022-09-09T00:15:56;16.70;99.90
48836;DHT22;62581;47.342;7.908;2022-09-09T00:18:28;16.80;99.90
48836;DHT22;62581;47.342;7.908;2022-09-09T00:21:05;16.80;99.90
48836;DHT22;62581;47.342;7.908;2022-09-09T00:23:35;16.80;99.90
48836;DHT22;62581;47.342;7.908;2022-09-09T00:26:09;16.80;99.90
48836;DHT22;62581;47.342;7.908;2022-09-09T00:28:48;16.80;99.90
48836;DHT22;62581;47.342;7.908;2022-09-09T00:31:23;16.90;99.90
48836;DHT22;62581;47.342;7.908;2022-09-09T00:33:53;16.90;99.90
48836;DHT22;62581;47.342;7.908;2022-09-09T00:36:22;16.90;99.90
48836;DHT22;62581;47.342;7.908;2022-09-09T00:38:55;16.90;99.90
48836;DHT22;62581;47.342;7.908;2022-09-09T00:41:29;16.90;99.90
48836;DHT22;62581;47.342;7.908;2022-09-09T00:44:03;16.90;99.90
48836;DHT22;62581;47.342;7.908;2022-09-09T00:46:56;16.90;99.90
48836;DHT22;62581;47.342;7.908;2022-09-09T00:49:36;16.90;99.90
48836;DHT22;62581;47.342;7.908;2022-09-09T00:52:16;16.90;99.90
48836;DHT22;62581;47.342;7.908;2022-09-09T00:54:54;16.90;99.90
48836;DHT22;62581;47.342;7.908;2022-09-09T00:57:27;16.80;99.90
48836;DHT22;62581;47.342;7.908;2022-09-09T01:00:18;16.80;99.90
48836;DHT22;62581;47.342;7.908;2022-09-09T01:02:53;16.70;99.90
48836;DHT22;62581;47.342;7.908;2022-09-09T01:05:27;16.60;99.90
48836;DHT22;62581;47.342;7.908;2022-09-09T01:07:58;16.60;99.90
48836;DHT22;62581;47.342;7.908;2022-09-09T01:10:36;16.50;99.90
48836;DHT22;62581;47.342;7.908;2022-09-09T01:13:11;16.50;99.90
48836;DHT22;62581;47.342;7.908;2022-09-09T01:15:42;16.50;99.90
48836;DHT22;62581;47.342;7.908;2022-09-09T01:18:14;16.50;99.90
48836;DHT22;62581;47.342;7.908;2022-09-09T01:20:49;16.40;99.90
48836;DHT22;62581;47.342;7.908;2022-09-09T01:23:34;16.40;99.90
48836;DHT22;62581;47.342;7.908;2022-09-09T01:26:17;16.40;99.90
48836;DHT22;62581;47.342;7.908;2022-09-09T01:28:46;16.40;99.90
48836;DHT22;62581;47.342;7.908;2022-09-09T01:31:17;16.40;99.90
48836;DHT22;62581;47.342;7.908;2022-09-09T01:33:46;16.50;99.90
48836;DHT22;62581;47.342;7.908;2022-09-09T01:36:23;16.50;99.90
48836;DHT22;62581;47.342;7.908;2022-09-09T01:38:52;16.50;99.90
48836;DHT22;62581;47.342;7.908;2022-09-09T01:41:21;16.50;99.90
48836;DHT22;62581;47.342;7.908;2022-09-09T01:43:48;16.50;99.90
48836;DHT22;62581;47.342;7.908;2022-09-09T01:46:17;16.50;99.90
48836;DHT22;62581;47.342;7.908;2022-09-09T01:48:45;16.50;99.90
48836;DHT22;62581;47.342;7.908;2022-09-09T01:51:12;16.50;99.90
48836;DHT22;62581;47.342;7.908;2022-09-09T01:53:41;16.50;99.90
48836;DHT22;62581;47.342;7.908;2022-09-09T01:56:24;16.50;99.90
48836;DHT22;62581;47.342;7.908;2022-09-09T01:59:16;16.50;99.90
48836;DHT22;62581;47.342;7.908;2022-09-09T02:01:55;16.30;99.90
48836;DHT22;62581;47.342;7.908;2022-09-09T02:04:36;16.30;99.90
48836;DHT22;62581;47.342;7.908;2022-09-09T02:07:09;16.20;99.90
48836;DHT22;62581;47.342;7.908;2022-09-09T02:09:39;16.10;99.90
48836;DHT22;62581;47.342;7.908;2022-09-09T02:12:11;16.10;99.90
48836;DHT22;62581;47.342;7.908;2022-09-09T02:14:43;16.10;99.90
48836;DHT22;62581;47.342;7.908;2022-09-09T02:17:16;16.10;99.90
48836;DHT22;62581;47.342;7.908;2022-09-09T02:19:48;16.10;99.90
48836;DHT22;62581;47.342;7.908;2022-09-09T02:22:17;16.20;99.90
48836;DHT22;62581;47.342;7.908;2022-09-09T02:24:45;16.20;99.90
48836;DHT22;62581;47.342;7.908;2022-09-09T02:27:14;16.20;99.90
48836;DHT22;62581;47.342;7.908;2022-09-09T02:29:43;16.20;99.90
48836;DHT22;62581;47.342;7.908;2022-09-09T02:32:14;16.20;99.90
48836;DHT22;62581;47.342;7.908;2022-09-09T02:34:44;16.20;99.90
48836;DHT22;62581;47.342;7.908;2022-09-09T02:37:16;16.20;99.90
48836;DHT22;62581;47.342;7.908;2022-09-09T02:39:44;16.30;99.90
48836;DHT22;62581;47.342;7.908;2022-09-09T02:42:11;16.30;99.90
48836;DHT22;62581;47.342;7.908;2022-09-09T02:44:42;16.30;99.90
48836;DHT22;62581;47.342;7.908;2022-09-09T02:47:25;16.40;99.90
48836;DHT22;62581;47.342;7.908;2022-09-09T02:50:08;16.40;99.90
48836;DHT22;62581;47.342;7.908;2022-09-09T02:52:44;16.40;99.90
48836;DHT22;62581;47.342;7.908;2022-09-09T02:55:18;16.30;99.90
48836;DHT22;62581;47.342;7.908;2022-09-09T02:57:49;16.30;99.90
48836;DHT22;62581;47.342;7.908;2022-09-09T03:00:24;16.30;99.90
48836;DHT22;62581;47.342;7.908;2022-09-09T03:02:52;16.20;99.90
48836;DHT22;62581;47.342;7.908;2022-09-09T03:05:20;16.20;99.90
48836;DHT22;62581;47.342;7.908;2022-09-09T03:07:47;16.10;99.90
48836;DHT22;62581;47.342;7.908;2022-09-09T03:10:16;16.10;99.90
48836;DHT22;62581;47.342;7.908;2022-09-09T03:12:43;16.10;99.90
48836;DHT22;62581;47.342;7.908;2022-09-09T03:15:10;16.10;99.90
48836;DHT22;62581;47.342;7.908;2022-09-09T03:17:38;16.00;99.90
48836;DHT22;62581;47.342;7.908;2022-09-09T03:20:06;16.10;99.90
48836;DHT22;62581;47.342;7.908;2022-09-09T03:22:34;16.10;99.90
48836;DHT22;62581;47.342;7.908;2022-09-09T03:25:02;16.10;99.90
48836;DHT22;62581;47.342;7.908;2022-09-09T03:27:29;16.00;99.90
48836;DHT22;62581;47.342;7.908;2022-09-09T03:29:56;16.00;99.90
48836;DHT22;62581;47.342;7.908;2022-09-09T03:32:23;16.00;99.90
48836;DHT22;62581;47.342;7.908;2022-09-09T03:34:52;16.10;99.90
48836;DHT22;62581;47.342;7.908;2022-09-09T03:37:20;16.10;99.90
48836;DHT22;62581;47.342;7.908;2022-09-09T03:39:48;16.00;99.90
48836;DHT22;62581;47.342;7.908;2022-09-09T03:42:15;16.00;99.90
48836;DHT22;62581;47.342;7.908;2022-09-09T03:44:44;16.00;99.90
48836;DHT22;62581;47.342;7.908;2022-09-09T03:47:16;16.00;99.90
48836;DHT22;62581;47.342;7.908;2022-09-09T03:49:44;16.00;99.90
48836;DHT22;62581;47.342;7.908;2022-09-09T03:52:13;16.00;99.90
48836;DHT22;62581;47.342;7.908;2022-09-09T03:54:41;15.90;99.90
48836;DHT22;62581;47.342;7.908;2022-09-09T03:57:08;15.90;99.90
48836;DHT22;62581;47.342;7.908;2022-09-09T03:59:35;15.90;99.90
48836;DHT22;62581;47.342;7.908;2022-09-09T04:02:03;15.90;99.90
48836;DHT22;62581;47.342;7.908;2022-09-09T04:04:29;16.00;99.90
48836;DHT22;62581;47.342;7.908;2022-09-09T04:06:56;15.90;99.90
48836;DHT22;62581;47.342;7.908;2022-09-09T04:09:25;15.90;99.90
48836;DHT22;62581;47.342;7.908;2022-09-09T04:11:52;15.80;99.90
48836;DHT22;62581;47.342;7.908;2022-09-09T04:14:20;15.70;99.90
48836;DHT22;62581;47.342;7.908;2022-09-09T04:16:47;15.70;99.90
48836;DHT22;62581;47.342;7.908;2022-09-09T04:19:15;15.60;99.90
48836;DHT22;62581;47.342;7.908;2022-09-09T04:21:42;15.60;99.90
48836;DHT22;62581;47.342;7.908;2022-09-09T04:24:09;15.60;99.90
48836;DHT22;62581;47.342;7.908;2022-09-09T04:26:38;15.60;99.90
48836;DHT22;62581;47.342;7.908;2022-09-09T04:29:05;15.60;99.90
48836;DHT22;62581;47.342;7.908;2022-09-09T04:31:33;15.70;99.90
48836;DHT22;62581;47.342;7.908;2022-09-09T04:34:00;15.60;99.90
48836;DHT22;62581;47.342;7.908;2022-09-09T04:36:31;15.70;99.90
48836;DHT22;62581;47.342;7.908;2022-09-09T04:38:58;15.70;99.90
48836;DHT22;62581;47.342;7.908;2022-09-09T04:41:27;15.70;99.90
48836;DHT22;62581;47.342;7.908;2022-09-09T04:43:55;15.70;99.90
48836;DHT22;62581;47.342;7.908;2022-09-09T04:46:22;15.70;99.90
48836;DHT22;62581;47.342;7.908;2022-09-09T04:48:50;15.70;99.90
48836;DHT22;62581;47.342;7.908;2022-09-09T04:51:18;15.70;99.90
48836;DHT22;62581;47.342;7.908;2022-09-09T04:53:45;15.70;99.90
48836;DHT22;62581;47.342;7.908;2022-09-09T04:56:14;15.70;99.90
48836;DHT22;62581;47.342;7.908;2022-09-09T04:58:41;15.70;99.90
48836;DHT22;62581;47.342;7.908;2022-09-09T05:01:12;15.70;99.90
48836;DHT22;62581;47.342;7.908;2022-09-09T05:03:39;15.70;99.90
48836;DHT22;62581;47.342;7.908;2022-09-09T05:06:08;15.70;99.90
48836;DHT22;62581;47.342;7.908;2022-09-09T05:08:35;15.70;99.90
48836;DHT22;62581;47.342;7.908;2022-09-09T05:11:03;15.70;99.90
48836;DHT22;62581;47.342;7.908;2022-09-09T05:13:30;15.80;99.90
48836;DHT22;62581;47.342;7.908;2022-09-09T05:15:58;15.70;99.90
48836;DHT22;62581;47.342;7.908;2022-09-09T05:18:26;15.70;99.90
48836;DHT22;62581;47.342;7.908;2022-09-09T05:21:00;15.70;99.90
48836;DHT22;62581;47.342;7.908;2022-09-09T05:23:27;15.60;99.90
48836;DHT22;62581;47.342;7.908;2022-09-09T05:25:56;15.70;99.90
48836;DHT22;62581;47.342;7.908;2022-09-09T05:28:23;15.60;99.90
48836;DHT22;62581;47.342;7.908;2022-09-09T05:31:02;15.60;99.90
48836;DHT22;62581;47.342;7.908;2022-09-09T05:33:32;15.60;99.90
48836;DHT22;62581;47.342;7.908;2022-09-09T05:35:59;15.60;99.90
48836;DHT22;62581;47.342;7.908;2022-09-09T05:38:27;15.70;99.90
48836;DHT22;62581;47.342;7.908;2022-09-09T05:40:54;15.80;99.90
48836;DHT22;62581;47.342;7.908;2022-09-09T05:43:21;15.80;99.90
48836;DHT22;62581;47.342;7.908;2022-09-09T05:45:58;15.90;99.90
48836;DHT22;62581;47.342;7.908;2022-09-09T05:48:28;16.00;99.90
48836;DHT22;62581;47.342;7.908;2022-09-09T05:50:58;16.10;99.90
48836;DHT22;62581;47.342;7.908;2022-09-09T05:53:25;16.20;99.90
48836;DHT22;62581;47.342;7.908;2022-09-09T05:55:59;16.20;99.90
48836;DHT22;62581;47.342;7.908;2022-09-09T05:58:27;16.30;99.90
48836;DHT22;62581;47.342;7.908;2022-09-09T06:01:00;16.40;99.90
48836;DHT22;62581;47.342;7.908;2022-09-09T06:03:27;16.40;99.90
48836;DHT22;62581;47.342;7.908;2022-09-09T06:05:59;16.40;99.90
48836;DHT22;62581;47.342;7.908;2022-09-09T06:08:27;16.50;99.90
48836;DHT22;62581;47.342;7.908;2022-09-09T06:11:01;16.50;99.90
48836;DHT22;62581;47.342;7.908;2022-09-09T06:13:29;16.50;99.90
48836;DHT22;62581;47.342;7.908;2022-09-09T06:15:57;16.50;99.90
48836;DHT22;62581;47.342;7.908;2022-09-09T06:18:25;16.60;99.90
48836;DHT22;62581;47.342;7.908;2022-09-09T06:20:56;16.60;99.90
48836;DHT22;62581;47.342;7.908;2022-09-09T06:23:25;16.70;99.90
48836;DHT22;62581;47.342;7.908;2022-09-09T06:26:01;16.60;99.90
48836;DHT22;62581;47.342;7.908;2022-09-09T06:28:28;16.50;99.90
48836;DHT22;62581;47.342;7.908;2022-09-09T06:30:58;16.50;99.90
48836;DHT22;62581;47.342;7.908;2022-09-09T06:33:25;16.40;99.90
48836;DHT22;62581;47.342;7.908;2022-09-09T06:35:53;16.40;99.90
48836;DHT22;62581;47.342;7.908;2022-09-09T06:38:20;16.40;99.90
48836;DHT22;62581;47.342;7.908;2022-09-09T06:40:52;16.40;99.90
48836;DHT22;62581;47.342;7.908;2022-09-09T06:43:21;16.50;99.90
48836;DHT22;62581;47.342;7.908;2022-09-09T06:45:55;16.60;99.90
48836;DHT22;62581;47.342;7.908;2022-09-09T06:48:22;16.60;99.90
48836;DHT22;62581;47.342;7.908;2022-09-09T06:50:51;16.70;99.90
48836;DHT22;62581;47.342;7.908;2022-09-09T06:53:19;16.80;99.90
48836;DHT22;62581;47.342;7.908;2022-09-09T06:55:46;16.90;99.90
48836;DHT22;62581;47.342;7.908;2022-09-09T06:58:15;17.10;99.90
48836;DHT22;62581;47.342;7.908;2022-09-09T07:00:42;17.30;99.90
48836;DHT22;62581;47.342;7.908;2022-09-09T07:03:10;17.40;99.90
48836;DHT22;62581;47.342;7.908;2022-09-09T07:05:37;17.70;99.90
48836;DHT22;62581;47.342;7.908;2022-09-09T07:08:04;17.90;99.90
48836;DHT22;62581;47.342;7.908;2022-09-09T07:10:31;18.10;99.90
48836;DHT22;62581;47.342;7.908;2022-09-09T07:12:59;18.10;99.90
48836;DHT22;62581;47.342;7.908;2022-09-09T07:15:29;18.30;99.90
48836;DHT22;62581;47.342;7.908;2022-09-09T07:18:00;18.30;99.90
48836;DHT22;62581;47.342;7.908;2022-09-09T07:20:28;18.30;99.90
48836;DHT22;62581;47.342;7.908;2022-09-09T07:22:55;18.40;99.90
48836;DHT22;62581;47.342;7.908;2022-09-09T07:25:24;18.50;99.90
48836;DHT22;62581;47.342;7.908;2022-09-09T07:27:56;18.40;99.90
48836;DHT22;62581;47.342;7.908;2022-09-09T07:30:24;18.30;99.90
48836;DHT22;62581;47.342;7.908;2022-09-09T07:32:52;18.20;99.90
48836;DHT22;62581;47.342;7.908;2022-09-09T07:35:22;18.20;99.90
48836;DHT22;62581;47.342;7.908;2022-09-09T07:37:49;18.10;99.90
48836;DHT22;62581;47.342;7.908;2022-09-09T07:40:16;18.10;99.90
48836;DHT22;62581;47.342;7.908;2022-09-09T07:42:43;18.20;99.90
48836;DHT22;62581;47.342;7.908;2022-09-09T07:45:10;18.30;99.90
48836;DHT22;62581;47.342;7.908;2022-09-09T07:47:37;18.40;99.90
48836;DHT22;62581;47.342;7.908;2022-09-09T07:50:06;18.50;99.90
48836;DHT22;62581;47.342;7.908;2022-09-09T07:52:35;18.60;99.90
48836;DHT22;62581;47.342;7.908;2022-09-09T07:55:02;18.70;99.90
48836;DHT22;62581;47.342;7.908;2022-09-09T07:57:30;18.80;99.90
48836;DHT22;62581;47.342;7.908;2022-09-09T07:59:57;19.00;99.90
48836;DHT22;62581;47.342;7.908;2022-09-09T08:02:24;19.20;99.90
48836;DHT22;62581;47.342;7.908;2022-09-09T08:04:54;19.50;99.90
48836;DHT22;62581;47.342;7.908;2022-09-09T08:07:23;19.70;99.90
48836;DHT22;62581;47.342;7.908;2022-09-09T08:09:50;19.70;99.90
48836;DHT22;62581;47.342;7.908;2022-09-09T08:12:17;19.60;99.90
48836;DHT22;62581;47.342;7.908;2022-09-09T08:14:44;19.70;99.90
48836;DHT22;62581;47.342;7.908;2022-09-09T08:17:11;19.90;99.90
48836;DHT22;62581;47.342;7.908;2022-09-09T08:19:38;20.00;99.90
48836;DHT22;62581;47.342;7.908;2022-09-09T08:22:06;20.00;99.90
48836;DHT22;62581;47.342;7.908;2022-09-09T08:24:34;20.30;99.90
48836;DHT22;62581;47.342;7.908;2022-09-09T08:27:01;20.30;99.90
48836;DHT22;62581;47.342;7.908;2022-09-09T08:29:28;20.40;99.90
48836;DHT22;62581;47.342;7.908;2022-09-09T08:31:58;20.60;99.90
48836;DHT22;62581;47.342;7.908;2022-09-09T08:34:25;20.70;99.90
48836;DHT22;62581;47.342;7.908;2022-09-09T08:36:54;20.70;99.90
48836;DHT22;62581;47.342;7.908;2022-09-09T08:39:21;20.90;99.90
48836;DHT22;62581;47.342;7.908;2022-09-09T08:42:04;21.20;99.90
48836;DHT22;62581;47.342;7.908;2022-09-09T08:47:26;21.80;99.90
48836;DHT22;62581;47.342;7.908;2022-09-09T08:50:12;21.80;99.90
48836;DHT22;62581;47.342;7.908;2022-09-09T08:52:49;21.90;99.90
48836;DHT22;62581;47.342;7.908;2022-09-09T08:55:22;22.10;99.90
48836;DHT22;62581;47.342;7.908;2022-09-09T08:57:54;22.40;99.90
48836;DHT22;62581;47.342;7.908;2022-09-09T09:00:23;22.40;99.90
48836;DHT22;62581;47.342;7.908;2022-09-09T09:03:03;22.40;99.90
48836;DHT22;62581;47.342;7.908;2022-09-09T09:05:37;22.10;99.90
48836;DHT22;62581;47.342;7.908;2022-09-09T09:08:13;21.90;99.90
48836;DHT22;62581;47.342;7.908;2022-09-09T09:10:46;21.80;99.90
48836;DHT22;62581;47.342;7.908;2022-09-09T09:13:18;21.70;99.90
48836;DHT22;62581;47.342;7.908;2022-09-09T09:15:50;21.70;99.90
48836;DHT22;62581;47.342;7.908;2022-09-09T09:18:19;21.60;99.90
48836;DHT22;62581;47.342;7.908;2022-09-09T09:20:54;21.20;99.90
48836;DHT22;62581;47.342;7.908;2022-09-09T09:23:25;21.00;99.90
48836;DHT22;62581;47.342;7.908;2022-09-09T09:25:58;20.80;99.90
48836;DHT22;62581;47.342;7.908;2022-09-09T09:28:30;20.70;99.90
48836;DHT22;62581;47.342;7.908;2022-09-09T09:31:03;20.80;99.90
48836;DHT22;62581;47.342;7.908;2022-09-09T09:33:34;20.80;99.90
48836;DHT22;62581;47.342;7.908;2022-09-09T09:36:04;20.90;99.90
48836;DHT22;62581;47.342;7.908;2022-09-09T09:38:31;21.20;99.90
48836;DHT22;62581;47.342;7.908;2022-09-09T09:40:59;21.40;99.90
48836;DHT22;62581;47.342;7.908;2022-09-09T09:43:29;21.40;99.90
48836;DHT22;62581;47.342;7.908;2022-09-09T09:45:57;21.40;99.90
48836;DHT22;62581;47.342;7.908;2022-09-09T09:48:25;21.30;99.90
48836;DHT22;62581;47.342;7.908;2022-09-09T09:50:54;21.20;99.90
48836;DHT22;62581;47.342;7.908;2022-09-09T09:53:25;21.20;99.90
48836;DHT22;62581;47.342;7.908;2022-09-09T09:55:57;21.20;99.90
48836;DHT22;62581;47.342;7.908;2022-09-09T09:58:29;21.30;99.90
48836;DHT22;62581;47.342;7.908;2022-09-09T10:00:58;21.50;99.90
48836;DHT22;62581;47.342;7.908;2022-09-09T10:03:26;21.60;99.90
48836;DHT22;62581;47.342;7.908;2022-09-09T10:05:54;21.80;99.90
48836;DHT22;62581;47.342;7.908;2022-09-09T10:08:22;22.00;99.90
48836;DHT22;62581;47.342;7.908;2022-09-09T10:11:12;22.00;99.90
48836;DHT22;62581;47.342;7.908;2022-09-09T10:13:49;22.00;99.90
48836;DHT22;62581;47.342;7.908;2022-09-09T10:16:38;22.00;99.90
48836;DHT22;62581;47.342;7.908;2022-09-09T10:19:13;22.00;99.90
48836;DHT22;62581;47.342;7.908;2022-09-09T10:25:01;22.10;99.90
48836;DHT22;62581;47.342;7.908;2022-09-09T10:27:38;22.00;99.90
48836;DHT22;62581;47.342;7.908;2022-09-09T10:30:16;22.00;99.90
48836;DHT22;62581;47.342;7.908;2022-09-09T10:32:49;21.90;99.90
48836;DHT22;62581;47.342;7.908;2022-09-09T10:35:30;22.00;99.90
48836;DHT22;62581;47.342;7.908;2022-09-09T10:38:14;22.00;99.90
48836;DHT22;62581;47.342;7.908;2022-09-09T10:43:39;21.60;99.90
48836;DHT22;62581;47.342;7.908;2022-09-09T10:46:16;21.70;99.90
48836;DHT22;62581;47.342;7.908;2022-09-09T10:48:55;21.90;99.90
48836;DHT22;62581;47.342;7.908;2022-09-09T10:51:30;22.00;99.90
48836;DHT22;62581;47.342;7.908;2022-09-09T10:54:22;22.00;99.90
48836;DHT22;62581;47.342;7.908;2022-09-09T10:56:56;22.00;99.90
48836;DHT22;62581;47.342;7.908;2022-09-09T10:59:27;22.00;99.90
48836;DHT22;62581;47.342;7.908;2022-09-09T11:01:59;22.10;99.90
48836;DHT22;62581;47.342;7.908;2022-09-09T11:04:29;22.10;99.90
48836;DHT22;62581;47.342;7.908;2022-09-09T11:07:02;22.10;99.90
48836;DHT22;62581;47.342;7.908;2022-09-09T11:09:37;22.20;99.90
48836;DHT22;62581;47.342;7.908;2022-09-09T11:12:10;22.30;99.90
48836;DHT22;62581;47.342;7.908;2022-09-09T11:14:42;22.50;99.90
48836;DHT22;62581;47.342;7.908;2022-09-09T11:17:15;22.60;99.90
48836;DHT22;62581;47.342;7.908;2022-09-09T11:19:44;22.60;99.90
48836;DHT22;62581;47.342;7.908;2022-09-09T11:22:21;22.70;99.70
48836;DHT22;62581;47.342;7.908;2022-09-09T11:24:53;22.70;99.90
48836;DHT22;62581;47.342;7.908;2022-09-09T11:27:25;22.80;99.20
48836;DHT22;62581;47.342;7.908;2022-09-09T11:30:15;22.90;99.20
48836;DHT22;62581;47.342;7.908;2022-09-09T11:33:08;23.00;98.30
48836;DHT22;62581;47.342;7.908;2022-09-09T11:35:44;23.00;96.90
48836;DHT22;62581;47.342;7.908;2022-09-09T11:38:25;23.00;97.00
48836;DHT22;62581;47.342;7.908;2022-09-09T11:40:57;23.10;97.00
48836;DHT22;62581;47.342;7.908;2022-09-09T11:43:29;23.30;95.90
48836;DHT22;62581;47.342;7.908;2022-09-09T11:45:59;23.30;95.90
48836;DHT22;62581;47.342;7.908;2022-09-09T11:48:36;23.50;96.00
48836;DHT22;62581;47.342;7.908;2022-09-09T11:51:06;23.50;95.00
48836;DHT22;62581;47.342;7.908;2022-09-09T11:53:34;23.60;95.60
48836;DHT22;62581;47.342;7.908;2022-09-09T11:56:10;23.60;93.50
48836;DHT22;62581;47.342;7.908;2022-09-09T11:58:44;23.80;94.60
48836;DHT22;62581;47.342;7.908;2022-09-09T12:01:35;24.00;93.50
48836;DHT22;62581;47.342;7.908;2022-09-09T12:04:25;23.90;91.40
48836;DHT22;62581;47.342;7.908;2022-09-09T12:06:57;23.80;92.30
48836;DHT22;62581;47.342;7.908;2022-09-09T12:09:32;24.10;91.30
48836;DHT22;62581;47.342;7.908;2022-09-09T12:12:23;24.00;91.90
48836;DHT22;62581;47.342;7.908;2022-09-09T12:15:22;24.30;91.00
48836;DHT22;62581;47.342;7.908;2022-09-09T12:17:52;24.40;90.90
48836;DHT22;62581;47.342;7.908;2022-09-09T12:20:23;24.90;90.00
48836;DHT22;62581;47.342;7.908;2022-09-09T12:23:03;25.30;89.60
48836;DHT22;62581;47.342;7.908;2022-09-09T12:25:47;26.20;86.70
48836;DHT22;62581;47.342;7.908;2022-09-09T12:28:18;26.20;82.70
48836;DHT22;62581;47.342;7.908;2022-09-09T12:30:55;26.50;84.10
48836;DHT22;62581;47.342;7.908;2022-09-09T12:33:25;26.70;82.00
48836;DHT22;62581;47.342;7.908;2022-09-09T12:36:02;26.50;82.90
48836;DHT22;62581;47.342;7.908;2022-09-09T12:38:34;26.10;84.30
48836;DHT22;62581;47.342;7.908;2022-09-09T12:41:01;26.20;82.60
48836;DHT22;62581;47.342;7.908;2022-09-09T12:43:28;25.80;82.20
48836;DHT22;62581;47.342;7.908;2022-09-09T12:45:57;25.60;82.30
48836;DHT22;62581;47.342;7.908;2022-09-09T12:48:31;26.00;83.30
48836;DHT22;62581;47.342;7.908;2022-09-09T12:51:01;26.30;81.40
48836;DHT22;62581;47.342;7.908;2022-09-09T12:53:31;26.70;82.00
48836;DHT22;62581;47.342;7.908;2022-09-09T12:56:01;27.40;78.30
48836;DHT22;62581;47.342;7.908;2022-09-09T12:58:30;27.60;75.80
48836;DHT22;62581;47.342;7.908;2022-09-09T13:00:59;27.60;73.20
48836;DHT22;62581;47.342;7.908;2022-09-09T13:03:27;27.60;75.10
48836;DHT22;62581;47.342;7.908;2022-09-09T13:05:58;27.70;71.70
48836;DHT22;62581;47.342;7.908;2022-09-09T13:08:27;27.00;73.80
48836;DHT22;62581;47.342;7.908;2022-09-09T13:10:57;26.50;73.20
48836;DHT22;62581;47.342;7.908;2022-09-09T13:13:27;26.10;75.10
48836;DHT22;62581;47.342;7.908;2022-09-09T13:15:57;25.70;75.50
48836;DHT22;62581;47.342;7.908;2022-09-09T13:18:28;25.20;77.50
48836;DHT22;62581;47.342;7.908;2022-09-09T13:20:56;25.00;79.10
48836;DHT22;62581;47.342;7.908;2022-09-09T13:23:25;25.00;78.80
48836;DHT22;62581;47.342;7.908;2022-09-09T13:25:55;24.90;79.50
48836;DHT22;62581;47.342;7.908;2022-09-09T13:28:24;25.30;81.00
48836;DHT22;62581;47.342;7.908;2022-09-09T13:30:58;26.60;79.70
48836;DHT22;62581;47.342;7.908;2022-09-09T13:33:33;27.80;77.60
48836;DHT22;62581;47.342;7.908;2022-09-09T13:36:04;29.00;76.00
48836;DHT22;62581;47.342;7.908;2022-09-09T13:38:35;30.50;73.40
48836;DHT22;62581;47.342;7.908;2022-09-09T13:41:05;30.90;71.20
48836;DHT22;62581;47.342;7.908;2022-09-09T13:43:36;29.90;71.30
48836;DHT22;62581;47.342;7.908;2022-09-09T13:46:21;29.90;72.20
48836;DHT22;62581;47.342;7.908;2022-09-09T13:48:54;30.50;72.50
48836;DHT22;62581;47.342;7.908;2022-09-09T13:51:30;31.80;67.00
48836;DHT22;62581;47.342;7.908;2022-09-09T13:53:59;32.90;64.70
48836;DHT22;62581;47.342;7.908;2022-09-09T13:56:27;33.10;63.80
48836;DHT22;62581;47.342;7.908;2022-09-09T13:58:54;33.60;61.40
48836;DHT22;62581;47.342;7.908;2022-09-09T14:01:22;33.80;59.00
48836;DHT22;62581;47.342;7.908;2022-09-09T14:03:49;33.20;61.10
48836;DHT22;62581;47.342;7.908;2022-09-09T14:06:18;32.50;61.90
48836;DHT22;62581;47.342;7.908;2022-09-09T14:08:47;32.30;62.30
48836;DHT22;62581;47.342;7.908;2022-09-09T14:11:16;31.30;64.40
48836;DHT22;62581;47.342;7.908;2022-09-09T14:13:44;29.80;67.30
48836;DHT22;62581;47.342;7.908;2022-09-09T14:16:11;28.80;71.60
48836;DHT22;62581;47.342;7.908;2022-09-09T14:18:38;28.10;73.60
48836;DHT22;62581;47.342;7.908;2022-09-09T14:21:06;27.40;73.80
48836;DHT22;62581;47.342;7.908;2022-09-09T14:23:34;27.20;74.60
48836;DHT22;62581;47.342;7.908;2022-09-09T14:26:01;27.50;74.10
48836;DHT22;62581;47.342;7.908;2022-09-09T14:28:28;28.90;72.20
48836;DHT22;62581;47.342;7.908;2022-09-09T14:30:59;28.90;70.50
48836;DHT22;62581;47.342;7.908;2022-09-09T14:33:27;27.80;71.40
48836;DHT22;62581;47.342;7.908;2022-09-09T14:35:56;26.80;74.00
48836;DHT22;62581;47.342;7.908;2022-09-09T14:38:24;26.30;77.60
48836;DHT22;62581;47.342;7.908;2022-09-09T14:40:52;26.70;77.20
48836;DHT22;62581;47.342;7.908;2022-09-09T14:43:19;29.00;73.60
48836;DHT22;62581;47.342;7.908;2022-09-09T14:45:45;31.90;67.60
48836;DHT22;62581;47.342;7.908;2022-09-09T14:48:15;31.90;64.10
48836;DHT22;62581;47.342;7.908;2022-09-09T14:50:42;31.10;64.70
48836;DHT22;62581;47.342;7.908;2022-09-09T14:53:09;29.90;68.10
48836;DHT22;62581;47.342;7.908;2022-09-09T14:55:37;29.90;68.00
48836;DHT22;62581;47.342;7.908;2022-09-09T14:58:04;30.70;64.90
48836;DHT22;62581;47.342;7.908;2022-09-09T15:00:31;31.40;63.30
48836;DHT22;62581;47.342;7.908;2022-09-09T15:02:58;31.30;62.80
48836;DHT22;62581;47.342;7.908;2022-09-09T15:05:27;32.10;62.60
48836;DHT22;62581;47.342;7.908;2022-09-09T15:07:54;32.80;59.90
48836;DHT22;62581;47.342;7.908;2022-09-09T15:10:22;33.40;58.20
48836;DHT22;62581;47.342;7.908;2022-09-09T15:12:49;33.10;58.30
48836;DHT22;62581;47.342;7.908;2022-09-09T15:15:16;33.20;58.10
48836;DHT22;62581;47.342;7.908;2022-09-09T15:17:43;34.00;57.90
48836;DHT22;62581;47.342;7.908;2022-09-09T15:20:10;34.40;56.00
48836;DHT22;62581;47.342;7.908;2022-09-09T15:22:38;34.30;56.90
48836;DHT22;62581;47.342;7.908;2022-09-09T15:25:08;34.80;55.10
48836;DHT22;62581;47.342;7.908;2022-09-09T15:27:35;35.40;54.30
48836;DHT22;62581;47.342;7.908;2022-09-09T15:30:02;35.80;54.20
48836;DHT22;62581;47.342;7.908;2022-09-09T15:32:29;35.90;53.70
48836;DHT22;62581;47.342;7.908;2022-09-09T15:34:58;35.10;53.20
48836;DHT22;62581;47.342;7.908;2022-09-09T15:37:25;34.70;55.30
48836;DHT22;62581;47.342;7.908;2022-09-09T15:39:53;34.50;54.20
48836;DHT22;62581;47.342;7.908;2022-09-09T15:42:20;32.90;55.90
48836;DHT22;62581;47.342;7.908;2022-09-09T15:44:47;31.50;57.60
48836;DHT22;62581;47.342;7.908;2022-09-09T15:47:14;29.80;60.50
48836;DHT22;62581;47.342;7.908;2022-09-09T15:49:42;28.60;63.00
48836;DHT22;62581;47.342;7.908;2022-09-09T15:52:10;27.30;65.60
48836;DHT22;62581;47.342;7.908;2022-09-09T15:54:37;26.60;67.80
48836;DHT22;62581;47.342;7.908;2022-09-09T15:57:11;26.10;68.40
48836;DHT22;62581;47.342;7.908;2022-09-09T15:59:38;25.50;69.10
48836;DHT22;62581;47.342;7.908;2022-09-09T16:02:05;24.90;70.30